Last 30 Days

Squaw-Belmont 8000'

Daily Data | America/Los_Angeles
as of 5/24/19 2:20 PM PDT
Date Daily Max Temp (°F) Max Temp Time Daily Min Temp (°F) Min Temp Time Daily Rain (In) Seasonal Rainfall (In) New Snow (in) SnowDepth (in) Wind Spd (mph) Daily Max Wind (mph) Max Wind Time Max Wind Dir (°) Max RH (%) Min RH (%) Wet Bulb (°F) WetB Hrs <28F (hrs) Bat Volt Min Day (V)
5/23/19 38.3 1534 31.6 0001 0.03 54.49 0.0 182 5.0 25.1 0014 NE | 43 100 84 33.2 0.0 13.02
5/22/19 35.1 1503 24.1 0019 0.20 54.46 1.4 186 8.4 28.8 2003 N | 10 100 87 29.2 9.3 13.04
5/21/19 30.9 1430 23.4 0650 1.16 54.26 2.4 186 12.3 40.1 0046 SSW | 194 100 91 26.3 18.5 13.04
5/20/19 32.2 1249 17.7 0253 0.04 53.10 5.2 178 9.6 33.9 2309 WSW | 237 99 75 26.1 12.9 13.04
5/19/19 31.1 1258 20.4 2112 0.87 53.06 7.5 181 9.4 31.3 0539 SSW | 192 100 86 25.7 20.2 13.04
5/18/19 35.1 1310 24.2 0525 0.31 52.19 1.8 178 7.8 30.7 2017 SW | 224 100 80 28.4 12.5 13.02
5/17/19 34.0 1209 23.7 0343 0.39 51.88 0.0 176 8.7 29.3 0239 WSW | 242 100 91 27.9 12.4 13.02
5/16/19 32.0 0022 23.5 0712 1.76 51.49 9.6 178 12.9 45.4 1735 SW | 233 100 95 26.9 18.8 13.03
5/15/19 38.2 0236 31.6 2350 0.75 49.73 0.3 167 14.5 46.9 1204 SW | 234 100 71 33.7 0.0 13.04
5/14/19 45.0 1520 37.3 2038 0.00 48.98 0.0 167 9.0 29.1 1245 WSW | 253 80 46 34.7 0.0 12.92
5/13/19 48.4 1153 38.1 2124 0.00 48.98 0.0 169 9.1 25.8 1457 WSW | 257 82 42 36.6 0.0 12.93
5/12/19 52.6 1204 38.1 0240 0.00 48.98 0.0 172 4.9 19.4 1733 WSW | 251 88 42 39.3 0.0 12.93
5/11/19 51.3 1727 37.4 0312 0.00 48.98 0.0 175 3.7 14.1 0531 ENE | 65 77 33 36.0 0.0 12.95
5/10/19 45.4 1813 31.0 0622 0.00 48.98 0.0 177 7.6 28.2 0906 ENE | 66 77 29 32.0 0.0 12.99
5/9/19 45.7 1313 35.6 0612 0.00 48.98 0.0 178 5.5 25.2 2321 E | 97 79 46 35.0 0.0 12.95
5/8/19 48.7 1502 35.7 0351 0.00 48.98 0.0 180 3.7 17.4 0046 N | 351 92 51 37.4 0.0 12.97
5/7/19 46.5 1454 35.3 0512 0.00 48.98 0.0 182 5.4 17.1 1714 NW | 304 95 47 37.1 0.0 12.98
5/6/19 48.1 1257 35.8 2356 0.06 48.98 0.0 185 6.4 24.6 1715 NNW | 345 92 51 37.0 0.0 12.98
5/5/19 48.4 1508 34.6 0454 0.00 48.92 0.0 186 4.1 22.2 1518 NNW | 343 89 45 35.9 0.0 13.00
5/4/19 46.4 1157 32.2 0530 0.00 48.92 0.0 188 3.2 13.1 1740 NW | 320 94 31 34.2 0.0 13.01
5/3/19 45.2 1254 30.9 0430 0.00 48.92 0.0 190 2.9 13.7 1611 NW | 307 91 46 34.5 0.0 13.01
5/2/19 42.4 1609 25.2 0557 0.00 48.92 0.0 192 2.9 15.6 1804 W | 260 90 38 30.5 6.9 13.03
5/1/19 39.1 1535 23.9 0408 0.00 48.92 0.0 194 4.4 18.3 1831 WNW | 290 95 49 28.0 11.5 13.05
4/30/19 36.2 1434 24.9 0001 0.12 48.92 0.0 196 9.4 37.4 0922 WSW | 248 100 74 30.4 6.9 13.05
4/29/19 44.0 0736 31.0 0456 0.00 48.80 0.0 196 7.0 20.4 1826 WNW | 296 99 38 33.6 0.5 13.04
4/28/19 46.3 1200 33.3 2311 0.00 48.80 0.0 198 8.2 25.8 0430 SSW | 205 87 28 33.0 0.0 13.04
4/27/19 46.8 1147 34.0 0134 0.00 48.80 0.0 200 8.9 27.8 2130 SSW | 208 89 48 35.4 0.0 13.05
4/26/19 46.2 1142 34.5 2357 0.00 48.80 0.2 203 8.3 21.5 0429 SW | 234 88 54 36.1 0.0 13.06
4/25/19 47.7 1146 33.4 0117 0.00 48.80 0.1 205 5.2 18.2 1803 WSW | 242 94 56 36.4 0.0 13.07
4/24/19 47.0 1046 33.0 0318 0.00 48.80 0.0 208 3.0 13.4 1824 NW | 308 100 63 36.5 0.0 13.08
Max 52.6 - 38.1 - 1.76 - 9.6 208 14.5 46.9 - - 100 95 39.3 20.2 13.08
Avg - - - - - - 0.9 185 7.0 - - - - - 32.9 - -
Min 30.9 - 17.7 - 0.00 - 0.0 167 2.9 13.1 - - 77 28 25.7 0.0 12.92